sensor_id;sensor_type;location;lat;lon;timestamp;temperature;humidity
7317;DHT22;3699;51.462;6.696;2024-03-07T00:00:01;6.40;99.90
7317;DHT22;3699;51.462;6.696;2024-03-07T00:02:29;6.40;99.90
7317;DHT22;3699;51.462;6.696;2024-03-07T00:04:57;6.40;99.90
7317;DHT22;3699;51.462;6.696;2024-03-07T00:07:24;6.30;99.90
7317;DHT22;3699;51.462;6.696;2024-03-07T00:09:50;6.30;99.90
7317;DHT22;3699;51.462;6.696;2024-03-07T00:12:19;6.20;99.90
7317;DHT22;3699;51.462;6.696;2024-03-07T00:14:46;6.10;99.90
7317;DHT22;3699;51.462;6.696;2024-03-07T00:17:12;6.10;99.90
7317;DHT22;3699;51.462;6.696;2024-03-07T00:19:39;6.10;99.90
7317;DHT22;3699;51.462;6.696;2024-03-07T00:22:07;6.00;99.90
7317;DHT22;3699;51.462;6.696;2024-03-07T00:24:34;6.00;99.90
7317;DHT22;3699;51.462;6.696;2024-03-07T00:27:01;5.90;99.90
7317;DHT22;3699;51.462;6.696;2024-03-07T00:29:27;5.90;99.90
7317;DHT22;3699;51.462;6.696;2024-03-07T00:31:54;5.80;99.90
7317;DHT22;3699;51.462;6.696;2024-03-07T00:34:21;6.00;99.90
7317;DHT22;3699;51.462;6.696;2024-03-07T00:36:48;5.70;99.90
7317;DHT22;3699;51.462;6.696;2024-03-07T00:39:18;6.00;99.90
7317;DHT22;3699;51.462;6.696;2024-03-07T00:41:45;5.90;99.90
7317;DHT22;3699;51.462;6.696;2024-03-07T00:44:12;5.70;99.90
7317;DHT22;3699;51.462;6.696;2024-03-07T00:46:39;5.60;99.90
7317;DHT22;3699;51.462;6.696;2024-03-07T00:49:06;5.60;99.90
7317;DHT22;3699;51.462;6.696;2024-03-07T00:51:33;5.60;99.90
7317;DHT22;3699;51.462;6.696;2024-03-07T00:54:00;5.60;99.90
7317;DHT22;3699;51.462;6.696;2024-03-07T00:56:28;5.60;99.90
7317;DHT22;3699;51.462;6.696;2024-03-07T00:58:55;5.60;99.90
7317;DHT22;3699;51.462;6.696;2024-03-07T01:01:22;5.60;99.90
7317;DHT22;3699;51.462;6.696;2024-03-07T01:03:49;5.60;99.90
7317;DHT22;3699;51.462;6.696;2024-03-07T01:06:15;5.70;99.90
7317;DHT22;3699;51.462;6.696;2024-03-07T01:08:42;5.60;99.90
7317;DHT22;3699;51.462;6.696;2024-03-07T01:11:09;5.70;99.90
7317;DHT22;3699;51.462;6.696;2024-03-07T01:13:39;5.70;99.90
7317;DHT22;3699;51.462;6.696;2024-03-07T01:16:06;5.70;99.90
7317;DHT22;3699;51.462;6.696;2024-03-07T01:18:33;5.80;99.90
7317;DHT22;3699;51.462;6.696;2024-03-07T01:20:59;5.70;99.90
7317;DHT22;3699;51.462;6.696;2024-03-07T01:23:26;5.70;99.90
7317;DHT22;3699;51.462;6.696;2024-03-07T01:25:55;5.30;99.90
7317;DHT22;3699;51.462;6.696;2024-03-07T01:28:23;5.70;99.90
7317;DHT22;3699;51.462;6.696;2024-03-07T01:30:51;5.80;99.90
7317;DHT22;3699;51.462;6.696;2024-03-07T01:33:18;5.80;99.90
7317;DHT22;3699;51.462;6.696;2024-03-07T01:35:45;5.80;99.90
7317;DHT22;3699;51.462;6.696;2024-03-07T01:38:13;6.00;99.90
7317;DHT22;3699;51.462;6.696;2024-03-07T01:40:40;5.90;99.90
7317;DHT22;3699;51.462;6.696;2024-03-07T01:43:07;5.80;99.90
7317;DHT22;3699;51.462;6.696;2024-03-07T01:45:34;5.90;99.90
7317;DHT22;3699;51.462;6.696;2024-03-07T01:48:04;5.90;99.90
7317;DHT22;3699;51.462;6.696;2024-03-07T01:50:31;5.90;99.90
7317;DHT22;3699;51.462;6.696;2024-03-07T01:52:59;5.90;99.90
7317;DHT22;3699;51.462;6.696;2024-03-07T01:55:27;6.00;99.90
7317;DHT22;3699;51.462;6.696;2024-03-07T01:57:55;6.00;99.90
7317;DHT22;3699;51.462;6.696;2024-03-07T02:00:23;6.00;99.90
7317;DHT22;3699;51.462;6.696;2024-03-07T02:02:49;6.00;99.90
7317;DHT22;3699;51.462;6.696;2024-03-07T02:05:18;6.10;99.90
7317;DHT22;3699;51.462;6.696;2024-03-07T02:07:45;6.10;99.90
7317;DHT22;3699;51.462;6.696;2024-03-07T02:10:12;6.10;99.90
7317;DHT22;3699;51.462;6.696;2024-03-07T02:12:39;6.20;99.90
7317;DHT22;3699;51.462;6.696;2024-03-07T02:15:06;6.20;99.90
7317;DHT22;3699;51.462;6.696;2024-03-07T02:17:34;6.20;99.90
7317;DHT22;3699;51.462;6.696;2024-03-07T02:20:02;6.10;99.90
7317;DHT22;3699;51.462;6.696;2024-03-07T02:22:34;6.20;99.90
7317;DHT22;3699;51.462;6.696;2024-03-07T02:25:00;6.10;99.90
7317;DHT22;3699;51.462;6.696;2024-03-07T02:27:27;6.20;99.90
7317;DHT22;3699;51.462;6.696;2024-03-07T02:29:55;6.10;99.90
7317;DHT22;3699;51.462;6.696;2024-03-07T02:32:21;6.10;99.90
7317;DHT22;3699;51.462;6.696;2024-03-07T02:34:49;6.80;99.90
7317;DHT22;3699;51.462;6.696;2024-03-07T02:37:16;6.00;99.90
7317;DHT22;3699;51.462;6.696;2024-03-07T02:39:44;6.00;99.90
7317;DHT22;3699;51.462;6.696;2024-03-07T02:42:11;6.00;99.90
7317;DHT22;3699;51.462;6.696;2024-03-07T02:44:37;5.90;99.90
7317;DHT22;3699;51.462;6.696;2024-03-07T02:47:05;5.90;99.90
7317;DHT22;3699;51.462;6.696;2024-03-07T02:49:31;6.00;99.90
7317;DHT22;3699;51.462;6.696;2024-03-07T02:51:58;5.80;99.90
7317;DHT22;3699;51.462;6.696;2024-03-07T02:54:25;5.80;99.90
7317;DHT22;3699;51.462;6.696;2024-03-07T02:56:54;5.80;99.90
7317;DHT22;3699;51.462;6.696;2024-03-07T02:59:20;5.80;99.90
7317;DHT22;3699;51.462;6.696;2024-03-07T03:01:47;5.70;99.90
7317;DHT22;3699;51.462;6.696;2024-03-07T03:04:14;5.70;99.90
7317;DHT22;3699;51.462;6.696;2024-03-07T03:06:41;5.70;99.90
7317;DHT22;3699;51.462;6.696;2024-03-07T03:09:07;5.60;99.90
7317;DHT22;3699;51.462;6.696;2024-03-07T03:11:38;5.60;99.90
7317;DHT22;3699;51.462;6.696;2024-03-07T03:14:06;5.60;99.90
7317;DHT22;3699;51.462;6.696;2024-03-07T03:16:33;5.60;99.90
7317;DHT22;3699;51.462;6.696;2024-03-07T03:19:00;5.60;99.90
7317;DHT22;3699;51.462;6.696;2024-03-07T03:21:26;5.50;99.90
7317;DHT22;3699;51.462;6.696;2024-03-07T03:23:53;5.50;99.90
7317;DHT22;3699;51.462;6.696;2024-03-07T03:26:20;5.40;99.90
7317;DHT22;3699;51.462;6.696;2024-03-07T03:28:47;5.40;99.90
7317;DHT22;3699;51.462;6.696;2024-03-07T03:31:15;5.40;99.90
7317;DHT22;3699;51.462;6.696;2024-03-07T03:33:41;5.50;99.90
7317;DHT22;3699;51.462;6.696;2024-03-07T03:36:08;5.40;99.90
7317;DHT22;3699;51.462;6.696;2024-03-07T03:38:36;5.40;99.90
7317;DHT22;3699;51.462;6.696;2024-03-07T03:41:03;5.40;99.90
7317;DHT22;3699;51.462;6.696;2024-03-07T03:43:30;5.40;99.90
7317;DHT22;3699;51.462;6.696;2024-03-07T03:45:57;5.40;99.90
7317;DHT22;3699;51.462;6.696;2024-03-07T03:48:25;5.40;99.90
7317;DHT22;3699;51.462;6.696;2024-03-07T03:50:52;5.40;99.90
7317;DHT22;3699;51.462;6.696;2024-03-07T03:53:19;5.40;99.90
7317;DHT22;3699;51.462;6.696;2024-03-07T03:55:46;5.30;99.90
7317;DHT22;3699;51.462;6.696;2024-03-07T03:58:12;5.20;99.90
7317;DHT22;3699;51.462;6.696;2024-03-07T04:00:39;5.20;99.90
7317;DHT22;3699;51.462;6.696;2024-03-07T04:03:06;5.10;99.90
7317;DHT22;3699;51.462;6.696;2024-03-07T04:05:35;5.20;99.90
7317;DHT22;3699;51.462;6.696;2024-03-07T04:08:01;5.20;99.90
7317;DHT22;3699;51.462;6.696;2024-03-07T04:10:29;5.10;99.90
7317;DHT22;3699;51.462;6.696;2024-03-07T04:12:56;5.10;99.90
7317;DHT22;3699;51.462;6.696;2024-03-07T04:15:24;5.20;99.90
7317;DHT22;3699;51.462;6.696;2024-03-07T04:17:52;5.10;99.90
7317;DHT22;3699;51.462;6.696;2024-03-07T04:20:19;5.00;99.90
7317;DHT22;3699;51.462;6.696;2024-03-07T04:22:47;5.00;99.90
7317;DHT22;3699;51.462;6.696;2024-03-07T04:25:14;4.90;99.90
7317;DHT22;3699;51.462;6.696;2024-03-07T04:27:41;5.00;99.90
7317;DHT22;3699;51.462;6.696;2024-03-07T04:30:08;4.90;99.90
7317;DHT22;3699;51.462;6.696;2024-03-07T04:32:36;5.00;99.90
7317;DHT22;3699;51.462;6.696;2024-03-07T04:35:04;5.00;99.90
7317;DHT22;3699;51.462;6.696;2024-03-07T04:37:33;5.00;99.90
7317;DHT22;3699;51.462;6.696;2024-03-07T04:40:03;4.90;99.90
7317;DHT22;3699;51.462;6.696;2024-03-07T04:42:36;5.00;99.90
7317;DHT22;3699;51.462;6.696;2024-03-07T04:45:03;4.90;99.90
7317;DHT22;3699;51.462;6.696;2024-03-07T04:47:30;4.90;99.90
7317;DHT22;3699;51.462;6.696;2024-03-07T04:49:57;4.90;99.90
7317;DHT22;3699;51.462;6.696;2024-03-07T04:52:24;4.90;99.90
7317;DHT22;3699;51.462;6.696;2024-03-07T04:54:51;4.80;99.90
7317;DHT22;3699;51.462;6.696;2024-03-07T04:57:19;4.80;99.90
7317;DHT22;3699;51.462;6.696;2024-03-07T04:59:45;4.80;99.90
7317;DHT22;3699;51.462;6.696;2024-03-07T05:02:12;4.80;99.90
7317;DHT22;3699;51.462;6.696;2024-03-07T05:04:39;5.10;99.90
7317;DHT22;3699;51.462;6.696;2024-03-07T05:07:06;4.80;99.90
7317;DHT22;3699;51.462;6.696;2024-03-07T05:09:33;4.80;99.90
7317;DHT22;3699;51.462;6.696;2024-03-07T05:12:00;4.70;99.90
7317;DHT22;3699;51.462;6.696;2024-03-07T05:14:28;4.70;99.90
7317;DHT22;3699;51.462;6.696;2024-03-07T05:16:54;4.70;99.90
7317;DHT22;3699;51.462;6.696;2024-03-07T05:19:34;4.70;99.90
7317;DHT22;3699;51.462;6.696;2024-03-07T05:22:01;4.70;99.90
7317;DHT22;3699;51.462;6.696;2024-03-07T05:24:30;4.60;99.90
7317;DHT22;3699;51.462;6.696;2024-03-07T05:26:58;4.60;99.90
7317;DHT22;3699;51.462;6.696;2024-03-07T05:29:24;4.50;99.90
7317;DHT22;3699;51.462;6.696;2024-03-07T05:31:53;4.60;99.90
7317;DHT22;3699;51.462;6.696;2024-03-07T05:34:20;4.50;99.90
7317;DHT22;3699;51.462;6.696;2024-03-07T05:36:48;4.50;99.90
7317;DHT22;3699;51.462;6.696;2024-03-07T05:39:16;4.50;99.90
7317;DHT22;3699;51.462;6.696;2024-03-07T05:41:44;4.60;99.90
7317;DHT22;3699;51.462;6.696;2024-03-07T05:44:11;4.40;99.90
7317;DHT22;3699;51.462;6.696;2024-03-07T05:46:38;4.40;99.90
7317;DHT22;3699;51.462;6.696;2024-03-07T05:49:12;4.40;99.90
7317;DHT22;3699;51.462;6.696;2024-03-07T05:51:40;4.40;99.90
7317;DHT22;3699;51.462;6.696;2024-03-07T05:54:10;4.40;99.90
7317;DHT22;3699;51.462;6.696;2024-03-07T05:56:38;4.40;99.90
7317;DHT22;3699;51.462;6.696;2024-03-07T05:59:05;4.40;99.90
7317;DHT22;3699;51.462;6.696;2024-03-07T06:01:35;4.40;99.90
7317;DHT22;3699;51.462;6.696;2024-03-07T06:04:02;4.40;99.90
7317;DHT22;3699;51.462;6.696;2024-03-07T06:06:32;4.40;99.90
7317;DHT22;3699;51.462;6.696;2024-03-07T06:09:01;4.30;99.90
7317;DHT22;3699;51.462;6.696;2024-03-07T06:11:32;4.30;99.90
7317;DHT22;3699;51.462;6.696;2024-03-07T06:13:59;4.30;99.90
7317;DHT22;3699;51.462;6.696;2024-03-07T06:16:28;4.40;99.90
7317;DHT22;3699;51.462;6.696;2024-03-07T06:18:58;4.30;99.90
7317;DHT22;3699;51.462;6.696;2024-03-07T06:21:25;4.30;99.90
7317;DHT22;3699;51.462;6.696;2024-03-07T06:23:53;4.30;99.90
7317;DHT22;3699;51.462;6.696;2024-03-07T06:26:24;4.30;99.90
7317;DHT22;3699;51.462;6.696;2024-03-07T06:29:03;4.30;99.90
7317;DHT22;3699;51.462;6.696;2024-03-07T06:31:30;4.30;99.90
7317;DHT22;3699;51.462;6.696;2024-03-07T06:33:57;4.30;99.90
7317;DHT22;3699;51.462;6.696;2024-03-07T06:36:24;4.30;99.90
7317;DHT22;3699;51.462;6.696;2024-03-07T06:38:50;4.40;99.90
7317;DHT22;3699;51.462;6.696;2024-03-07T06:41:18;4.40;99.90
7317;DHT22;3699;51.462;6.696;2024-03-07T06:43:45;4.40;99.90
7317;DHT22;3699;51.462;6.696;2024-03-07T06:46:12;4.50;99.90
7317;DHT22;3699;51.462;6.696;2024-03-07T06:48:39;4.50;99.90
7317;DHT22;3699;51.462;6.696;2024-03-07T06:51:05;4.50;99.90
7317;DHT22;3699;51.462;6.696;2024-03-07T06:53:32;4.60;99.90
7317;DHT22;3699;51.462;6.696;2024-03-07T06:55:59;4.60;99.90
7317;DHT22;3699;51.462;6.696;2024-03-07T06:58:27;4.70;99.90
7317;DHT22;3699;51.462;6.696;2024-03-07T07:00:54;4.80;99.90
7317;DHT22;3699;51.462;6.696;2024-03-07T07:03:21;5.00;99.90
7317;DHT22;3699;51.462;6.696;2024-03-07T07:05:48;5.40;99.90
7317;DHT22;3699;51.462;6.696;2024-03-07T07:08:15;5.40;99.90
7317;DHT22;3699;51.462;6.696;2024-03-07T07:10:42;5.70;99.90
7317;DHT22;3699;51.462;6.696;2024-03-07T07:13:09;5.80;99.90
7317;DHT22;3699;51.462;6.696;2024-03-07T07:15:38;6.00;99.90
7317;DHT22;3699;51.462;6.696;2024-03-07T07:18:05;6.20;99.90
7317;DHT22;3699;51.462;6.696;2024-03-07T07:20:33;6.60;99.90
7317;DHT22;3699;51.462;6.696;2024-03-07T07:22:59;6.70;99.90
7317;DHT22;3699;51.462;6.696;2024-03-07T07:25:27;6.90;99.90
7317;DHT22;3699;51.462;6.696;2024-03-07T07:27:54;7.00;99.90
7317;DHT22;3699;51.462;6.696;2024-03-07T07:30:23;7.60;99.90
7317;DHT22;3699;51.462;6.696;2024-03-07T07:32:51;7.50;99.90
7317;DHT22;3699;51.462;6.696;2024-03-07T07:35:19;7.70;99.90
7317;DHT22;3699;51.462;6.696;2024-03-07T07:37:47;7.80;99.90
7317;DHT22;3699;51.462;6.696;2024-03-07T07:40:16;7.80;99.90
7317;DHT22;3699;51.462;6.696;2024-03-07T07:42:44;7.90;99.90
7317;DHT22;3699;51.462;6.696;2024-03-07T07:45:13;8.10;99.90
7317;DHT22;3699;51.462;6.696;2024-03-07T07:47:39;8.20;99.90
7317;DHT22;3699;51.462;6.696;2024-03-07T07:50:10;8.30;99.90
7317;DHT22;3699;51.462;6.696;2024-03-07T07:52:40;8.40;99.90
7317;DHT22;3699;51.462;6.696;2024-03-07T07:55:07;8.30;99.90
7317;DHT22;3699;51.462;6.696;2024-03-07T07:57:43;8.30;99.90
7317;DHT22;3699;51.462;6.696;2024-03-07T08:00:12;8.30;99.90
7317;DHT22;3699;51.462;6.696;2024-03-07T08:02:48;8.50;99.90
7317;DHT22;3699;51.462;6.696;2024-03-07T08:05:17;8.60;99.90
7317;DHT22;3699;51.462;6.696;2024-03-07T08:07:44;8.50;99.90
7317;DHT22;3699;51.462;6.696;2024-03-07T08:10:11;8.50;99.90
7317;DHT22;3699;51.462;6.696;2024-03-07T08:12:38;8.70;99.90
7317;DHT22;3699;51.462;6.696;2024-03-07T08:15:07;8.80;99.90
7317;DHT22;3699;51.462;6.696;2024-03-07T08:17:37;8.70;99.90
7317;DHT22;3699;51.462;6.696;2024-03-07T08:20:04;8.40;99.90
7317;DHT22;3699;51.462;6.696;2024-03-07T08:22:38;8.10;99.90
7317;DHT22;3699;51.462;6.696;2024-03-07T08:25:06;8.10;99.90
7317;DHT22;3699;51.462;6.696;2024-03-07T08:27:35;7.90;99.90
7317;DHT22;3699;51.462;6.696;2024-03-07T08:30:02;7.70;99.90
7317;DHT22;3699;51.462;6.696;2024-03-07T08:32:29;7.70;99.90
7317;DHT22;3699;51.462;6.696;2024-03-07T08:34:55;7.70;99.90
7317;DHT22;3699;51.462;6.696;2024-03-07T08:37:22;7.60;99.90
7317;DHT22;3699;51.462;6.696;2024-03-07T08:39:52;6.70;99.90
7317;DHT22;3699;51.462;6.696;2024-03-07T08:42:19;7.70;99.90
7317;DHT22;3699;51.462;6.696;2024-03-07T08:44:46;7.70;99.90
7317;DHT22;3699;51.462;6.696;2024-03-07T08:47:12;7.90;99.90
7317;DHT22;3699;51.462;6.696;2024-03-07T08:49:39;8.00;99.90
7317;DHT22;3699;51.462;6.696;2024-03-07T08:52:06;8.30;99.90
7317;DHT22;3699;51.462;6.696;2024-03-07T08:54:34;8.50;99.90
7317;DHT22;3699;51.462;6.696;2024-03-07T08:57:02;8.50;99.90
7317;DHT22;3699;51.462;6.696;2024-03-07T08:59:30;8.60;99.90
7317;DHT22;3699;51.462;6.696;2024-03-07T09:01:58;8.70;99.90
7317;DHT22;3699;51.462;6.696;2024-03-07T09:04:27;8.90;99.90
7317;DHT22;3699;51.462;6.696;2024-03-07T09:06:54;9.10;99.90
7317;DHT22;3699;51.462;6.696;2024-03-07T09:09:21;9.30;99.90
7317;DHT22;3699;51.462;6.696;2024-03-07T09:11:50;9.40;99.90
7317;DHT22;3699;51.462;6.696;2024-03-07T09:14:18;9.40;97.00
7317;DHT22;3699;51.462;6.696;2024-03-07T09:16:46;9.60;94.80
7317;DHT22;3699;51.462;6.696;2024-03-07T09:19:14;9.80;90.90
7317;DHT22;3699;51.462;6.696;2024-03-07T09:21:45;9.90;78.60
7317;DHT22;3699;51.462;6.696;2024-03-07T09:24:12;9.90;87.50
7317;DHT22;3699;51.462;6.696;2024-03-07T09:26:40;10.20;87.20
7317;DHT22;3699;51.462;6.696;2024-03-07T09:29:07;10.50;59.70
7317;DHT22;3699;51.462;6.696;2024-03-07T09:31:37;10.50;55.00
7317;DHT22;3699;51.462;6.696;2024-03-07T09:34:05;10.50;50.50
7317;DHT22;3699;51.462;6.696;2024-03-07T09:36:34;10.30;48.90
7317;DHT22;3699;51.462;6.696;2024-03-07T09:39:01;10.20;50.70
7317;DHT22;3699;51.462;6.696;2024-03-07T09:41:28;9.80;54.60
7317;DHT22;3699;51.462;6.696;2024-03-07T09:43:56;9.60;62.70
7317;DHT22;3699;51.462;6.696;2024-03-07T09:46:24;9.80;65.90
7317;DHT22;3699;51.462;6.696;2024-03-07T09:48:53;10.00;57.10
7317;DHT22;3699;51.462;6.696;2024-03-07T09:51:20;10.30;51.90
7317;DHT22;3699;51.462;6.696;2024-03-07T09:53:49;10.00;50.20
7317;DHT22;3699;51.462;6.696;2024-03-07T09:56:19;10.40;49.70
7317;DHT22;3699;51.462;6.696;2024-03-07T09:58:49;10.20;47.10
7317;DHT22;3699;51.462;6.696;2024-03-07T10:01:19;10.20;46.90
7317;DHT22;3699;51.462;6.696;2024-03-07T10:03:47;10.50;47.50
7317;DHT22;3699;51.462;6.696;2024-03-07T10:06:15;10.20;53.40
7317;DHT22;3699;51.462;6.696;2024-03-07T10:08:42;10.20;55.80
7317;DHT22;3699;51.462;6.696;2024-03-07T10:11:09;10.30;52.70
7317;DHT22;3699;51.462;6.696;2024-03-07T10:13:36;10.40;52.80
7317;DHT22;3699;51.462;6.696;2024-03-07T10:16:04;10.50;53.10
7317;DHT22;3699;51.462;6.696;2024-03-07T10:18:31;9.90;47.30
7317;DHT22;3699;51.462;6.696;2024-03-07T10:20:58;10.30;46.30
7317;DHT22;3699;51.462;6.696;2024-03-07T10:23:26;10.40;46.90
7317;DHT22;3699;51.462;6.696;2024-03-07T10:25:53;10.40;45.10
7317;DHT22;3699;51.462;6.696;2024-03-07T10:28:20;10.50;43.90
7317;DHT22;3699;51.462;6.696;2024-03-07T10:30:47;10.50;46.60
7317;DHT22;3699;51.462;6.696;2024-03-07T10:33:16;10.30;43.20
7317;DHT22;3699;51.462;6.696;2024-03-07T10:35:46;10.40;41.50
7317;DHT22;3699;51.462;6.696;2024-03-07T10:38:14;10.10;43.00
7317;DHT22;3699;51.462;6.696;2024-03-07T10:40:46;10.00;45.20
7317;DHT22;3699;51.462;6.696;2024-03-07T10:43:15;9.90;48.30
7317;DHT22;3699;51.462;6.696;2024-03-07T10:45:44;10.00;48.30
7317;DHT22;3699;51.462;6.696;2024-03-07T10:48:13;9.70;54.70
7317;DHT22;3699;51.462;6.696;2024-03-07T10:50:50;9.70;53.30
7317;DHT22;3699;51.462;6.696;2024-03-07T10:53:22;9.80;55.70
7317;DHT22;3699;51.462;6.696;2024-03-07T10:56:12;9.50;55.70
7317;DHT22;3699;51.462;6.696;2024-03-07T10:58:50;9.60;57.10
7317;DHT22;3699;51.462;6.696;2024-03-07T11:01:31;9.20;58.60
7317;DHT22;3699;51.462;6.696;2024-03-07T11:03:59;9.80;56.80
7317;DHT22;3699;51.462;6.696;2024-03-07T11:06:30;10.00;59.30
7317;DHT22;3699;51.462;6.696;2024-03-07T11:09:00;10.20;53.70
7317;DHT22;3699;51.462;6.696;2024-03-07T11:11:29;10.70;54.20
7317;DHT22;3699;51.462;6.696;2024-03-07T11:13:57;10.60;53.60
7317;DHT22;3699;51.462;6.696;2024-03-07T11:16:25;10.80;49.90
7317;DHT22;3699;51.462;6.696;2024-03-07T11:19:18;10.60;50.30
7317;DHT22;3699;51.462;6.696;2024-03-07T11:21:46;10.60;49.60
7317;DHT22;3699;51.462;6.696;2024-03-07T11:24:23;10.60;46.20
7317;DHT22;3699;51.462;6.696;2024-03-07T11:26:51;10.70;47.20
7317;DHT22;3699;51.462;6.696;2024-03-07T11:29:40;11.10;47.60
7317;DHT22;3699;51.462;6.696;2024-03-07T11:32:09;10.70;45.70
7317;DHT22;3699;51.462;6.696;2024-03-07T11:34:40;11.10;47.30
7317;DHT22;3699;51.462;6.696;2024-03-07T11:37:17;11.00;49.80
7317;DHT22;3699;51.462;6.696;2024-03-07T11:39:44;10.80;45.90
7317;DHT22;3699;51.462;6.696;2024-03-07T11:42:23;10.70;47.80
7317;DHT22;3699;51.462;6.696;2024-03-07T11:44:52;11.10;51.00
7317;DHT22;3699;51.462;6.696;2024-03-07T11:47:21;11.00;47.40
7317;DHT22;3699;51.462;6.696;2024-03-07T11:49:51;11.10;50.30
7317;DHT22;3699;51.462;6.696;2024-03-07T11:52:18;11.00;57.20
7317;DHT22;3699;51.462;6.696;2024-03-07T11:54:45;10.70;51.30
7317;DHT22;3699;51.462;6.696;2024-03-07T11:57:18;11.00;54.90
7317;DHT22;3699;51.462;6.696;2024-03-07T11:59:52;10.70;55.20
7317;DHT22;3699;51.462;6.696;2024-03-07T12:02:19;10.80;55.80
7317;DHT22;3699;51.462;6.696;2024-03-07T12:04:48;10.80;56.30
7317;DHT22;3699;51.462;6.696;2024-03-07T12:07:16;11.10;59.40
7317;DHT22;3699;51.462;6.696;2024-03-07T12:09:44;11.00;55.00
7317;DHT22;3699;51.462;6.696;2024-03-07T12:12:16;11.20;52.90
7317;DHT22;3699;51.462;6.696;2024-03-07T12:14:43;10.80;54.80
7317;DHT22;3699;51.462;6.696;2024-03-07T12:17:10;11.10;53.90
7317;DHT22;3699;51.462;6.696;2024-03-07T12:19:37;10.90;56.00
7317;DHT22;3699;51.462;6.696;2024-03-07T12:22:08;10.80;57.60
7317;DHT22;3699;51.462;6.696;2024-03-07T12:24:39;11.10;58.80
7317;DHT22;3699;51.462;6.696;2024-03-07T12:27:08;10.70;58.70
7317;DHT22;3699;51.462;6.696;2024-03-07T12:29:36;10.60;70.80
7317;DHT22;3699;51.462;6.696;2024-03-07T12:32:05;10.70;71.60
7317;DHT22;3699;51.462;6.696;2024-03-07T12:34:33;10.70;75.70
7317;DHT22;3699;51.462;6.696;2024-03-07T12:37:03;10.70;69.90
7317;DHT22;3699;51.462;6.696;2024-03-07T12:39:31;10.90;69.90
7317;DHT22;3699;51.462;6.696;2024-03-07T12:42:03;11.00;61.20
7317;DHT22;3699;51.462;6.696;2024-03-07T12:44:39;10.90;67.70
7317;DHT22;3699;51.462;6.696;2024-03-07T12:47:09;11.20;66.20
7317;DHT22;3699;51.462;6.696;2024-03-07T12:49:36;11.20;65.50
7317;DHT22;3699;51.462;6.696;2024-03-07T12:52:03;11.20;59.70
7317;DHT22;3699;51.462;6.696;2024-03-07T12:54:31;11.10;57.30
7317;DHT22;3699;51.462;6.696;2024-03-07T12:56:57;11.10;59.20
7317;DHT22;3699;51.462;6.696;2024-03-07T12:59:26;11.10;63.40
7317;DHT22;3699;51.462;6.696;2024-03-07T13:01:52;11.20;65.00
7317;DHT22;3699;51.462;6.696;2024-03-07T13:04:19;11.10;63.40
7317;DHT22;3699;51.462;6.696;2024-03-07T13:06:46;11.00;63.50
7317;DHT22;3699;51.462;6.696;2024-03-07T13:09:13;11.00;63.50
7317;DHT22;3699;51.462;6.696;2024-03-07T13:11:39;10.90;68.80
7317;DHT22;3699;51.462;6.696;2024-03-07T13:14:07;10.90;73.90
7317;DHT22;3699;51.462;6.696;2024-03-07T13:16:36;11.00;63.60
7317;DHT22;3699;51.462;6.696;2024-03-07T13:19:03;11.00;65.60
7317;DHT22;3699;51.462;6.696;2024-03-07T13:21:30;11.10;70.20
7317;DHT22;3699;51.462;6.696;2024-03-07T13:24:00;11.10;67.10
7317;DHT22;3699;51.462;6.696;2024-03-07T13:26:28;11.10;64.50
7317;DHT22;3699;51.462;6.696;2024-03-07T13:28:55;11.20;67.70
7317;DHT22;3699;51.462;6.696;2024-03-07T13:31:26;10.90;63.60
7317;DHT22;3699;51.462;6.696;2024-03-07T13:33:54;11.00;63.50
7317;DHT22;3699;51.462;6.696;2024-03-07T13:36:21;11.10;74.00
7317;DHT22;3699;51.462;6.696;2024-03-07T13:38:51;11.20;75.00
7317;DHT22;3699;51.462;6.696;2024-03-07T13:41:18;11.20;76.80
7317;DHT22;3699;51.462;6.696;2024-03-07T13:43:45;11.20;74.80
7317;DHT22;3699;51.462;6.696;2024-03-07T13:46:13;11.20;70.30
7317;DHT22;3699;51.462;6.696;2024-03-07T13:48:40;11.30;75.90
7317;DHT22;3699;51.462;6.696;2024-03-07T13:51:09;11.30;71.00
7317;DHT22;3699;51.462;6.696;2024-03-07T13:53:40;11.20;61.50
7317;DHT22;3699;51.462;6.696;2024-03-07T13:56:33;11.10;65.60
7317;DHT22;3699;51.462;6.696;2024-03-07T13:59:33;11.10;74.10
7317;DHT22;3699;51.462;6.696;2024-03-07T14:02:16;10.90;67.80
7317;DHT22;3699;51.462;6.696;2024-03-07T14:08:10;10.90;71.00
7317;DHT22;3699;51.462;6.696;2024-03-07T14:11:08;10.80;73.80
7317;DHT22;3699;51.462;6.696;2024-03-07T14:13:59;10.80;79.80
7317;DHT22;3699;51.462;6.696;2024-03-07T14:16:50;10.90;80.80
7317;DHT22;3699;51.462;6.696;2024-03-07T14:19:54;10.90;78.80
7317;DHT22;3699;51.462;6.696;2024-03-07T14:22:40;10.60;81.20
7317;DHT22;3699;51.462;6.696;2024-03-07T14:25:42;10.90;81.60
7317;DHT22;3699;51.462;6.696;2024-03-07T14:28:17;10.50;77.60
7317;DHT22;3699;51.462;6.696;2024-03-07T14:30:55;10.70;87.50
7317;DHT22;3699;51.462;6.696;2024-03-07T14:33:28;10.90;90.10
7317;DHT22;3699;51.462;6.696;2024-03-07T14:36:01;10.80;73.70
7317;DHT22;3699;51.462;6.696;2024-03-07T14:38:46;10.90;61.10
7317;DHT22;3699;51.462;6.696;2024-03-07T14:41:17;10.90;64.80
7317;DHT22;3699;51.462;6.696;2024-03-07T14:43:45;10.90;68.20
7317;DHT22;3699;51.462;6.696;2024-03-07T14:46:13;11.10;62.50
7317;DHT22;3699;51.462;6.696;2024-03-07T14:48:41;10.90;64.20
7317;DHT22;3699;51.462;6.696;2024-03-07T14:51:10;10.80;66.20
7317;DHT22;3699;51.462;6.696;2024-03-07T14:53:39;10.50;58.00
7317;DHT22;3699;51.462;6.696;2024-03-07T14:56:06;10.90;50.70
7317;DHT22;3699;51.462;6.696;2024-03-07T14:58:35;10.90;51.90
7317;DHT22;3699;51.462;6.696;2024-03-07T15:01:04;11.00;51.00
7317;DHT22;3699;51.462;6.696;2024-03-07T15:03:31;11.10;48.80
7317;DHT22;3699;51.462;6.696;2024-03-07T15:05:59;11.30;46.70
7317;DHT22;3699;51.462;6.696;2024-03-07T15:08:27;11.00;46.10
7317;DHT22;3699;51.462;6.696;2024-03-07T15:10:58;11.10;44.60
7317;DHT22;3699;51.462;6.696;2024-03-07T15:13:29;11.20;44.30
7317;DHT22;3699;51.462;6.696;2024-03-07T15:15:57;11.30;45.50
7317;DHT22;3699;51.462;6.696;2024-03-07T15:18:25;11.00;43.60
7317;DHT22;3699;51.462;6.696;2024-03-07T15:20:52;10.90;41.30
7317;DHT22;3699;51.462;6.696;2024-03-07T15:23:18;10.80;44.90
7317;DHT22;3699;51.462;6.696;2024-03-07T15:25:45;11.00;41.60
7317;DHT22;3699;51.462;6.696;2024-03-07T15:28:12;10.90;36.10
7317;DHT22;3699;51.462;6.696;2024-03-07T15:30:39;10.70;36.30
7317;DHT22;3699;51.462;6.696;2024-03-07T15:33:09;11.00;37.20
7317;DHT22;3699;51.462;6.696;2024-03-07T15:35:35;10.60;32.60
7317;DHT22;3699;51.462;6.696;2024-03-07T15:38:02;10.70;35.00
7317;DHT22;3699;51.462;6.696;2024-03-07T15:40:31;10.70;32.60
7317;DHT22;3699;51.462;6.696;2024-03-07T15:42:59;10.70;30.00
7317;DHT22;3699;51.462;6.696;2024-03-07T15:45:27;10.70;29.70
7317;DHT22;3699;51.462;6.696;2024-03-07T15:47:55;10.60;30.00
7317;DHT22;3699;51.462;6.696;2024-03-07T15:50:26;11.00;29.80
7317;DHT22;3699;51.462;6.696;2024-03-07T15:52:55;10.80;29.30
7317;DHT22;3699;51.462;6.696;2024-03-07T15:55:23;10.80;30.00
7317;DHT22;3699;51.462;6.696;2024-03-07T15:57:52;10.80;27.70
7317;DHT22;3699;51.462;6.696;2024-03-07T16:00:21;11.10;28.00
7317;DHT22;3699;51.462;6.696;2024-03-07T16:02:55;11.00;26.50
7317;DHT22;3699;51.462;6.696;2024-03-07T16:05:24;11.20;24.60
7317;DHT22;3699;51.462;6.696;2024-03-07T16:07:53;11.10;24.60
7317;DHT22;3699;51.462;6.696;2024-03-07T16:10:21;11.10;25.40
7317;DHT22;3699;51.462;6.696;2024-03-07T16:12:49;11.30;25.20
7317;DHT22;3699;51.462;6.696;2024-03-07T16:15:16;10.90;23.40
7317;DHT22;3699;51.462;6.696;2024-03-07T16:17:46;11.20;22.80
7317;DHT22;3699;51.462;6.696;2024-03-07T16:20:12;11.20;22.00
7317;DHT22;3699;51.462;6.696;2024-03-07T16:22:40;10.90;21.90
7317;DHT22;3699;51.462;6.696;2024-03-07T16:25:09;11.20;23.60